createdAt,value
2018-06-22T00:00:05.587Z,13.70
2018-06-22T00:02:34.111Z,13.60
2018-06-22T00:05:02.642Z,13.60
2018-06-22T00:07:31.147Z,13.50
2018-06-22T00:09:59.715Z,13.50
2018-06-22T00:12:28.227Z,13.40
2018-06-22T00:14:56.742Z,13.40
2018-06-22T00:17:25.297Z,13.30
2018-06-22T00:19:53.795Z,13.30
2018-06-22T00:24:50.592Z,13.20
2018-06-22T00:27:19.082Z,13.20
2018-06-22T00:29:47.606Z,13.20
2018-06-22T00:34:44.345Z,13.10
2018-06-22T00:37:12.874Z,13.10
2018-06-22T00:39:41.466Z,13.00
2018-06-22T00:42:09.998Z,13.00
2018-06-22T00:44:38.523Z,12.90
2018-06-22T00:47:07.035Z,12.90
2018-06-22T00:49:35.593Z,12.90
2018-06-22T00:52:04.085Z,12.80
2018-06-22T00:54:32.611Z,12.80
2018-06-22T00:57:01.114Z,12.80
2018-06-22T00:59:29.647Z,12.70
2018-06-22T01:01:58.174Z,12.60
2018-06-22T01:04:26.677Z,12.60
2018-06-22T01:06:55.213Z,12.60
2018-06-22T01:09:23.866Z,12.50
2018-06-22T01:11:52.412Z,12.50
2018-06-22T01:14:20.974Z,12.40
2018-06-22T01:16:49.529Z,12.40
2018-06-22T01:19:18.842Z,12.30
2018-06-22T01:21:47.808Z,12.20
2018-06-22T01:24:16.361Z,12.10
2018-06-22T01:26:44.912Z,12.00
2018-06-22T01:29:18.943Z,11.90
2018-06-22T01:31:47.479Z,11.80
2018-06-22T01:34:15.994Z,11.80
2018-06-22T01:36:44.538Z,11.70
2018-06-22T01:39:13.072Z,11.60
2018-06-22T01:41:41.603Z,11.50
2018-06-22T01:44:10.096Z,11.40
2018-06-22T01:46:38.603Z,11.30
2018-06-22T01:49:07.161Z,11.30
2018-06-22T01:51:35.691Z,11.30
2018-06-22T01:54:04.708Z,11.30
2018-06-22T01:56:33.266Z,11.30
2018-06-22T01:59:01.918Z,11.30
2018-06-22T02:01:31.006Z,11.30
2018-06-22T02:03:59.546Z,11.30
2018-06-22T02:06:28.066Z,11.10
2018-06-22T02:08:56.607Z,11.10
2018-06-22T02:11:25.102Z,11.10
2018-06-22T02:13:53.634Z,11.00
2018-06-22T02:16:22.228Z,11.00
2018-06-22T02:18:50.786Z,11.00
2018-06-22T02:21:19.316Z,11.00
2018-06-22T02:23:47.855Z,11.00
2018-06-22T02:26:16.345Z,11.00
2018-06-22T02:28:44.849Z,10.90
2018-06-22T02:31:13.378Z,10.90
2018-06-22T02:33:41.879Z,10.80
2018-06-22T02:36:10.406Z,10.70
2018-06-22T02:38:38.965Z,10.70
2018-06-22T02:41:07.502Z,10.80
2018-06-22T02:43:36.298Z,10.90
2018-06-22T02:46:05.013Z,10.80
2018-06-22T02:48:33.779Z,10.70
2018-06-22T02:51:02.308Z,10.70
2018-06-22T02:53:30.829Z,10.60
2018-06-22T02:55:59.388Z,10.50
2018-06-22T02:58:27.953Z,10.60
2018-06-22T03:00:56.531Z,10.60
2018-06-22T03:05:53.204Z,10.60
2018-06-22T03:08:21.769Z,10.60
2018-06-22T03:10:50.341Z,10.60
2018-06-22T03:13:18.865Z,10.60
2018-06-22T03:15:47.375Z,10.50
2018-06-22T03:18:15.887Z,10.40
2018-06-22T03:20:44.446Z,10.40
2018-06-22T03:23:13.003Z,10.40
2018-06-22T03:25:41.546Z,10.40
2018-06-22T03:28:10.024Z,10.40
2018-06-22T03:30:38.511Z,10.40
2018-06-22T03:33:07.272Z,10.40
2018-06-22T03:35:35.843Z,10.40
2018-06-22T03:38:04.571Z,10.40
2018-06-22T03:40:33.087Z,10.50
2018-06-22T03:43:01.623Z,10.50
2018-06-22T03:45:30.161Z,10.60
2018-06-22T03:47:58.689Z,10.60
2018-06-22T03:50:27.274Z,10.60
2018-06-22T03:52:55.775Z,10.60
2018-06-22T03:55:24.259Z,10.50
2018-06-22T03:57:52.975Z,10.40
2018-06-22T04:00:21.558Z,10.40
2018-06-22T04:02:50.153Z,10.30
2018-06-22T04:05:18.680Z,10.30
2018-06-22T04:07:47.230Z,10.40
2018-06-22T04:10:15.742Z,10.40
2018-06-22T04:12:44.245Z,10.50
2018-06-22T04:15:12.774Z,10.60
2018-06-22T04:17:48.475Z,10.80
2018-06-22T04:20:17.347Z,10.90
2018-06-22T04:22:45.850Z,11.00
2018-06-22T04:25:14.502Z,11.10
2018-06-22T04:27:43.052Z,11.30
2018-06-22T04:30:11.756Z,11.50
2018-06-22T04:32:40.302Z,12.00
2018-06-22T04:35:08.895Z,12.50
2018-06-22T04:37:37.587Z,13.10
2018-06-22T04:40:06.208Z,13.70
2018-06-22T04:42:34.707Z,14.30
2018-06-22T04:45:03.363Z,14.80
2018-06-22T04:47:32.124Z,14.50
2018-06-22T04:50:00.956Z,13.90
2018-06-22T04:52:29.487Z,13.40
2018-06-22T04:54:58.077Z,13.10
2018-06-22T04:57:26.652Z,12.90
2018-06-22T04:59:55.227Z,12.70
2018-06-22T05:02:23.759Z,12.70
2018-06-22T05:04:52.366Z,12.80
2018-06-22T05:07:20.883Z,12.80
2018-06-22T05:09:49.447Z,13.00
2018-06-22T05:12:17.953Z,13.10
2018-06-22T05:14:46.462Z,13.20
2018-06-22T05:17:15.002Z,13.30
2018-06-22T05:19:43.565Z,13.20
2018-06-22T05:22:12.093Z,13.40
2018-06-22T05:24:40.596Z,13.50
2018-06-22T05:27:09.138Z,13.80
2018-06-22T05:29:37.758Z,14.00
2018-06-22T05:32:06.300Z,14.20
2018-06-22T05:34:34.841Z,14.80
2018-06-22T05:37:03.400Z,15.40
2018-06-22T05:39:32.795Z,16.40
2018-06-22T05:42:01.329Z,17.50
2018-06-22T05:44:29.867Z,18.60
2018-06-22T05:46:58.457Z,19.20
2018-06-22T05:49:27.253Z,19.60
2018-06-22T05:51:55.759Z,19.80
2018-06-22T05:54:24.602Z,19.80
2018-06-22T05:56:53.170Z,19.10
2018-06-22T05:59:21.740Z,18.50
2018-06-22T06:01:50.296Z,19.10
2018-06-22T06:04:18.867Z,20.00
2018-06-22T06:06:47.450Z,20.90
2018-06-22T06:09:16.123Z,21.50
2018-06-22T06:11:44.674Z,21.50
2018-06-22T06:14:13.224Z,21.60
2018-06-22T06:16:41.757Z,21.30
2018-06-22T06:19:10.307Z,21.20
2018-06-22T06:21:38.838Z,21.40
2018-06-22T06:24:07.425Z,21.30
2018-06-22T06:26:35.949Z,21.40
2018-06-22T06:29:04.489Z,21.40
2018-06-22T06:31:33.066Z,21.10
2018-06-22T06:34:01.629Z,20.60
2018-06-22T06:36:30.502Z,20.40
2018-06-22T06:38:59.145Z,20.30
2018-06-22T06:41:27.724Z,20.10
2018-06-22T06:43:56.302Z,19.80
2018-06-22T06:46:24.856Z,19.20
2018-06-22T06:48:54.032Z,18.40
2018-06-22T06:51:22.578Z,17.70
2018-06-22T06:53:51.093Z,17.50
2018-06-22T06:56:19.671Z,18.10
2018-06-22T06:58:48.229Z,18.50
2018-06-22T07:01:16.795Z,17.80
2018-06-22T07:03:45.368Z,17.50
2018-06-22T07:06:13.942Z,17.40
2018-06-22T07:08:42.511Z,19.00
2018-06-22T07:11:11.022Z,20.80
2018-06-22T07:13:39.550Z,20.60
2018-06-22T07:16:08.072Z,21.90
2018-06-22T07:18:36.882Z,23.00
2018-06-22T07:21:05.446Z,24.20
2018-06-22T07:23:34.005Z,24.40
2018-06-22T07:26:02.573Z,23.00
2018-06-22T07:28:31.125Z,22.10
2018-06-22T07:30:59.671Z,22.40
2018-06-22T07:33:28.210Z,23.40
2018-06-22T07:35:56.786Z,23.50
2018-06-22T07:38:25.349Z,21.70
2018-06-22T07:40:53.870Z,19.90
2018-06-22T07:43:22.384Z,19.20
2018-06-22T07:45:50.939Z,19.60
2018-06-22T07:48:19.517Z,19.20
2018-06-22T07:50:48.042Z,18.50
2018-06-22T07:53:16.563Z,18.10
2018-06-22T07:55:45.096Z,17.60
2018-06-22T07:58:13.682Z,17.60
2018-06-22T08:00:42.206Z,18.30
2018-06-22T08:03:10.751Z,18.70
2018-06-22T08:05:39.251Z,19.30
2018-06-22T08:08:09.023Z,19.30
2018-06-22T08:10:37.571Z,19.50
2018-06-22T08:13:06.107Z,20.00
2018-06-22T08:15:34.678Z,20.10
2018-06-22T08:18:03.215Z,19.50
2018-06-22T08:20:33.586Z,19.00
2018-06-22T08:23:02.124Z,19.20
2018-06-22T08:25:31.297Z,19.60
2018-06-22T08:27:59.921Z,19.40
2018-06-22T08:30:29.177Z,19.10
2018-06-22T08:32:57.686Z,19.00
2018-06-22T08:35:26.291Z,19.50
2018-06-22T08:37:54.860Z,20.10
2018-06-22T08:40:23.430Z,20.60
2018-06-22T08:42:51.945Z,20.90
2018-06-22T08:45:20.484Z,21.20
2018-06-22T08:47:49.082Z,21.10
2018-06-22T08:50:17.622Z,20.00
2018-06-22T08:52:46.281Z,19.50
2018-06-22T08:55:14.810Z,18.90
2018-06-22T08:57:43.301Z,18.90
2018-06-22T09:00:11.880Z,19.70
2018-06-22T09:02:40.402Z,20.20
2018-06-22T09:05:09.319Z,20.30
2018-06-22T09:07:37.842Z,20.50
2018-06-22T09:10:06.416Z,20.80
2018-06-22T09:12:35.029Z,21.00
2018-06-22T09:15:03.555Z,21.30
2018-06-22T09:17:32.139Z,20.90
2018-06-22T09:20:00.814Z,20.50
2018-06-22T09:22:29.340Z,20.30
2018-06-22T09:24:57.898Z,20.00
2018-06-22T09:27:26.424Z,19.80
2018-06-22T09:29:55.023Z,19.40
2018-06-22T09:32:23.542Z,19.40
2018-06-22T09:34:52.114Z,19.90
2018-06-22T09:37:20.650Z,20.50
2018-06-22T09:39:49.216Z,20.50
2018-06-22T09:42:17.836Z,20.30
2018-06-22T09:44:46.358Z,20.40
2018-06-22T09:47:14.876Z,20.10
2018-06-22T09:49:43.502Z,19.70
2018-06-22T09:52:12.046Z,19.10
2018-06-22T09:54:40.562Z,18.70
2018-06-22T09:57:09.122Z,18.80
2018-06-22T09:59:37.635Z,19.00
2018-06-22T10:02:06.249Z,19.60
2018-06-22T10:04:34.730Z,20.00
2018-06-22T10:07:03.292Z,20.10
2018-06-22T10:09:31.800Z,20.30
2018-06-22T10:12:00.343Z,20.40
2018-06-22T10:14:29.509Z,20.30
2018-06-22T10:16:58.064Z,20.40
2018-06-22T10:19:26.638Z,20.80
2018-06-22T10:21:55.153Z,20.70
2018-06-22T10:24:23.701Z,20.60
2018-06-22T10:26:52.272Z,20.70
2018-06-22T10:29:20.843Z,20.60
2018-06-22T10:31:49.414Z,20.20
2018-06-22T10:34:17.915Z,19.90
2018-06-22T10:36:46.421Z,19.80
2018-06-22T10:39:15.373Z,20.10
2018-06-22T10:41:43.924Z,20.30
2018-06-22T10:44:12.494Z,20.40
2018-06-22T10:46:41.461Z,20.30
2018-06-22T10:49:10.040Z,20.50
2018-06-22T10:51:38.615Z,20.30
2018-06-22T10:54:07.164Z,19.90
2018-06-22T10:56:35.787Z,20.10
2018-06-22T10:59:04.675Z,20.30
2018-06-22T11:01:33.210Z,20.30
2018-06-22T11:04:01.777Z,20.40
2018-06-22T11:06:30.322Z,20.60
2018-06-22T11:08:58.863Z,20.30
2018-06-22T11:11:27.369Z,20.30
2018-06-22T11:13:55.905Z,20.10
2018-06-22T11:16:24.534Z,20.20
2018-06-22T11:18:53.299Z,20.30
2018-06-22T11:21:21.970Z,19.90
2018-06-22T11:23:50.458Z,19.60
2018-06-22T11:26:19.025Z,19.50
2018-06-22T11:28:47.643Z,19.40
2018-06-22T11:31:16.279Z,19.60
2018-06-22T11:33:44.833Z,19.90
2018-06-22T11:36:13.441Z,20.00
2018-06-22T11:38:41.932Z,19.90
2018-06-22T11:41:11.352Z,19.80
2018-06-22T11:43:41.243Z,19.60
2018-06-22T11:46:12.009Z,19.70
2018-06-22T11:48:40.695Z,19.70
2018-06-22T11:51:09.540Z,19.60
2018-06-22T11:53:38.039Z,19.20
2018-06-22T11:56:06.604Z,18.90
2018-06-22T11:58:35.162Z,18.70
2018-06-22T12:01:03.703Z,18.40
2018-06-22T12:03:32.252Z,18.20
2018-06-22T12:06:00.886Z,18.00
2018-06-22T12:08:29.374Z,18.10
2018-06-22T12:10:57.912Z,18.10
2018-06-22T12:13:26.462Z,18.10
2018-06-22T12:18:23.214Z,17.80
2018-06-22T12:20:51.759Z,17.70
2018-06-22T12:23:20.334Z,17.70
2018-06-22T12:25:48.896Z,17.70
2018-06-22T12:28:17.725Z,17.70
2018-06-22T12:30:46.301Z,17.80
2018-06-22T12:33:14.900Z,17.90
2018-06-22T12:35:43.444Z,17.90
2018-06-22T12:38:11.963Z,17.90
2018-06-22T12:40:40.479Z,18.00
2018-06-22T12:45:37.171Z,18.60
2018-06-22T12:48:05.722Z,18.80
2018-06-22T12:50:34.319Z,19.00
2018-06-22T12:53:02.930Z,19.20
2018-06-22T12:55:31.513Z,19.40
2018-06-22T12:58:00.068Z,19.70
2018-06-22T13:00:28.774Z,19.90
2018-06-22T13:02:57.384Z,19.60
2018-06-22T13:05:28.692Z,19.30
2018-06-22T13:07:59.542Z,19.10
2018-06-22T13:12:56.374Z,18.80
2018-06-22T13:15:24.952Z,18.90
2018-06-22T13:17:53.462Z,19.20
2018-06-22T13:20:22.024Z,19.70
2018-06-22T13:22:51.012Z,20.00
2018-06-22T13:25:19.851Z,20.20
2018-06-22T13:27:49.109Z,20.00
2018-06-22T13:30:17.645Z,19.90
2018-06-22T13:32:47.453Z,19.60
2018-06-22T13:35:16.157Z,19.30
2018-06-22T13:37:44.687Z,18.90
2018-06-22T13:40:13.162Z,18.70
2018-06-22T13:42:42.298Z,18.80
2018-06-22T13:45:41.318Z,18.80
2018-06-22T13:48:10.121Z,19.00
2018-06-22T13:50:39.151Z,19.20
2018-06-22T13:53:07.966Z,19.50
2018-06-22T13:55:36.539Z,19.70
2018-06-22T13:58:05.158Z,19.90
2018-06-22T14:00:33.736Z,20.00
2018-06-22T14:03:03.083Z,20.10
2018-06-22T14:05:37.001Z,19.90
2018-06-22T14:08:05.618Z,19.80
2018-06-22T14:10:34.178Z,19.80
2018-06-22T14:13:03.166Z,20.10
2018-06-22T14:15:31.737Z,20.10
2018-06-22T14:18:00.272Z,20.00
2018-06-22T14:20:28.889Z,19.80
2018-06-22T14:22:57.590Z,19.70
2018-06-22T14:25:26.111Z,19.60
2018-06-22T14:27:55.665Z,19.50
2018-06-22T14:30:24.201Z,19.00
2018-06-22T14:32:53.265Z,19.00
2018-06-22T14:35:21.852Z,19.10
2018-06-22T14:37:50.422Z,19.20
2018-06-22T14:40:19.018Z,19.40
2018-06-22T14:42:47.565Z,19.40
2018-06-22T14:45:16.274Z,19.30
2018-06-22T14:47:44.842Z,19.20
2018-06-22T14:50:17.797Z,19.20
2018-06-22T14:52:47.121Z,19.00
2018-06-22T14:55:20.977Z,18.90
2018-06-22T14:57:54.934Z,18.90
2018-06-22T15:03:02.319Z,19.00
2018-06-22T15:05:36.145Z,19.30
2018-06-22T15:08:06.302Z,19.60
2018-06-22T15:10:38.086Z,19.90
2018-06-22T15:13:12.908Z,20.00
2018-06-22T15:15:41.619Z,20.10
2018-06-22T15:18:10.472Z,20.40
2018-06-22T15:20:38.961Z,20.40
2018-06-22T15:23:07.495Z,20.30
2018-06-22T15:25:36.030Z,20.40
2018-06-22T15:28:05.698Z,20.40
2018-06-22T15:30:34.232Z,20.20
2018-06-22T15:33:02.784Z,20.20
2018-06-22T15:35:36.522Z,20.00
2018-06-22T15:40:12.822Z,19.80
2018-06-22T15:42:46.738Z,19.50
2018-06-22T15:45:20.626Z,19.10
2018-06-22T15:47:54.502Z,19.00
2018-06-22T15:50:28.394Z,18.90
2018-06-22T15:53:02.299Z,18.90
2018-06-22T15:55:34.146Z,19.20
2018-06-22T15:58:02.702Z,19.40
2018-06-22T16:00:31.273Z,19.80
2018-06-22T16:03:05.194Z,19.90
2018-06-22T16:05:33.679Z,19.50
2018-06-22T16:08:02.247Z,19.20
2018-06-22T16:10:30.813Z,19.00
2018-06-22T16:12:59.351Z,18.90
2018-06-22T16:15:33.102Z,18.80
2018-06-22T16:18:06.969Z,18.80
2018-06-22T16:20:40.768Z,18.90
2018-06-22T16:23:14.536Z,18.90
2018-06-22T16:25:48.290Z,19.20
2018-06-22T16:30:45.071Z,19.40
2018-06-22T16:33:13.600Z,19.20
2018-06-22T16:35:42.183Z,19.00
2018-06-22T16:38:10.690Z,18.90
2018-06-22T16:40:39.246Z,18.80
2018-06-22T16:43:07.802Z,18.70
2018-06-22T16:45:36.343Z,18.70
2018-06-22T16:48:04.873Z,18.80
2018-06-22T16:50:33.406Z,18.90
2018-06-22T16:53:01.918Z,18.80
2018-06-22T16:55:30.437Z,18.80
2018-06-22T16:57:59.237Z,18.60
2018-06-22T17:00:27.805Z,18.60
2018-06-22T17:02:56.359Z,18.60
2018-06-22T17:05:24.932Z,18.60
2018-06-22T17:07:58.813Z,18.50
2018-06-22T17:10:32.670Z,18.40
2018-06-22T17:13:06.829Z,18.30
2018-06-22T17:16:40.625Z,18.40
2018-06-22T17:19:09.184Z,18.50
2018-06-22T17:21:37.778Z,18.70
2018-06-22T17:24:06.351Z,18.70
2018-06-22T17:26:34.872Z,18.70
2018-06-22T17:29:03.426Z,18.70
2018-06-22T17:31:31.998Z,18.70
2018-06-22T17:34:00.540Z,18.60
2018-06-22T17:36:29.984Z,18.60
2018-06-22T17:38:58.579Z,18.50
2018-06-22T17:41:27.089Z,18.50
2018-06-22T17:43:55.626Z,18.40
2018-06-22T17:46:24.200Z,18.30
2018-06-22T17:48:52.729Z,18.20
2018-06-22T17:51:21.262Z,18.10
2018-06-22T17:53:49.821Z,18.10
2018-06-22T17:56:23.530Z,17.90
2018-06-22T17:58:57.419Z,17.80
2018-06-22T18:01:31.118Z,17.70
2018-06-22T18:06:07.371Z,17.70
2018-06-22T18:08:41.157Z,17.60
2018-06-22T18:11:14.805Z,17.50
2018-06-22T18:13:43.378Z,17.30
2018-06-22T18:16:11.923Z,17.40
2018-06-22T18:18:40.495Z,17.30
2018-06-22T18:21:09.091Z,17.40
2018-06-22T18:23:37.680Z,17.50
2018-06-22T18:26:06.210Z,17.50
2018-06-22T18:28:34.831Z,17.50
2018-06-22T18:31:03.378Z,17.40
2018-06-22T18:33:31.914Z,17.30
2018-06-22T18:36:00.524Z,17.20
2018-06-22T18:38:29.053Z,17.20
2018-06-22T18:40:57.601Z,17.20
2018-06-22T18:43:31.330Z,17.10
2018-06-22T18:45:59.879Z,17.00
2018-06-22T18:48:28.434Z,16.90
2018-06-22T18:50:56.966Z,16.80
2018-06-22T18:53:30.831Z,16.80
2018-06-22T18:56:04.677Z,16.70
2018-06-22T18:58:38.412Z,16.60
2018-06-22T19:01:12.335Z,16.50
2018-06-22T19:03:47.510Z,16.40
2018-06-22T19:06:16.318Z,16.30
2018-06-22T19:11:13.214Z,16.20
2018-06-22T19:13:42.674Z,16.10
2018-06-22T19:18:40.827Z,15.90
2018-06-22T19:21:09.944Z,15.80
2018-06-22T19:23:38.812Z,15.70
2018-06-22T19:26:07.910Z,15.60
2018-06-22T19:28:37.292Z,15.60
2018-06-22T19:31:11.246Z,15.50
2018-06-22T19:33:39.730Z,15.40
2018-06-22T19:36:09.635Z,15.30
2018-06-22T19:38:38.624Z,15.30
2018-06-22T19:41:07.147Z,15.20
2018-06-22T19:43:41.106Z,15.20
2018-06-22T19:46:14.982Z,15.00
2018-06-22T19:48:48.861Z,14.80
2018-06-22T19:54:00.109Z,14.50
2018-06-22T19:56:28.746Z,14.60
2018-06-22T19:58:57.415Z,14.50
2018-06-22T20:01:26.105Z,14.40
2018-06-22T20:03:54.630Z,14.30
2018-06-22T20:06:23.159Z,14.30
2018-06-22T20:08:51.638Z,14.20
2018-06-22T20:11:20.161Z,14.20
2018-06-22T20:13:48.676Z,14.00
2018-06-22T20:16:17.351Z,13.80
2018-06-22T20:18:46.081Z,13.70
2018-06-22T20:21:14.646Z,13.50
2018-06-22T20:23:43.213Z,13.40
2018-06-22T20:26:11.742Z,13.40
2018-06-22T20:28:40.302Z,13.50
2018-06-22T20:31:08.906Z,13.40
2018-06-22T20:33:37.862Z,13.20
2018-06-22T20:36:11.731Z,13.10
2018-06-22T20:41:18.850Z,12.90
2018-06-22T20:43:52.737Z,12.70
2018-06-22T20:46:26.980Z,12.80
2018-06-22T20:49:00.785Z,12.70
2018-06-22T20:51:33.918Z,12.70
2018-06-22T20:54:02.479Z,12.70
2018-06-22T20:56:31.014Z,12.60
2018-06-22T20:58:59.546Z,12.60
2018-06-22T21:01:28.571Z,12.50
2018-06-22T21:03:57.173Z,12.30
2018-06-22T21:06:25.717Z,12.30
2018-06-22T21:08:54.242Z,12.30
2018-06-22T21:11:22.799Z,12.20
2018-06-22T21:13:51.326Z,12.10
2018-06-22T21:16:19.943Z,11.80
2018-06-22T21:18:48.469Z,11.60
2018-06-22T21:21:22.190Z,11.50
2018-06-22T21:23:50.726Z,11.40
2018-06-22T21:26:19.294Z,11.40
2018-06-22T21:28:53.064Z,11.20
2018-06-22T21:31:26.827Z,11.20
2018-06-22T21:34:00.683Z,11.20
2018-06-22T21:41:04.162Z,11.20
2018-06-22T21:43:32.722Z,11.40
2018-06-22T21:46:01.302Z,11.40
2018-06-22T21:48:30.035Z,11.20
2018-06-22T21:50:58.454Z,11.10
2018-06-22T21:53:27.082Z,10.90
2018-06-22T21:55:55.630Z,11.00
2018-06-22T21:58:24.203Z,10.90
2018-06-22T22:00:52.783Z,10.90
2018-06-22T22:03:21.304Z,10.80
2018-06-22T22:05:49.875Z,10.80
2018-06-22T22:08:18.413Z,10.80
2018-06-22T22:10:52.209Z,10.80
2018-06-22T22:13:20.767Z,10.70
2018-06-22T22:15:49.326Z,10.70
2018-06-22T22:18:18.983Z,10.70
2018-06-22T22:20:47.528Z,10.80
2018-06-22T22:23:16.088Z,10.90
2018-06-22T22:25:44.658Z,10.80
2018-06-22T22:30:56.174Z,10.50
2018-06-22T22:33:24.715Z,10.50
2018-06-22T22:35:53.305Z,10.60
2018-06-22T22:38:21.959Z,10.60
2018-06-22T22:40:50.484Z,10.60
2018-06-22T22:43:19.018Z,10.70
2018-06-22T22:45:47.518Z,10.50
2018-06-22T22:48:16.023Z,10.50
2018-06-22T22:50:44.581Z,10.40
2018-06-22T22:53:13.158Z,10.30
2018-06-22T22:55:41.731Z,10.00
2018-06-22T22:58:10.231Z,9.90
2018-06-22T23:00:38.789Z,9.80
2018-06-22T23:03:07.392Z,9.80
2018-06-22T23:05:35.904Z,9.90
2018-06-22T23:08:04.899Z,10.00
2018-06-22T23:10:33.449Z,10.10
2018-06-22T23:13:01.998Z,10.10
2018-06-22T23:15:30.610Z,10.10
2018-06-22T23:17:59.191Z,9.90
2018-06-22T23:20:27.694Z,9.80
2018-06-22T23:23:36.981Z,9.80
2018-06-22T23:26:05.845Z,9.70
2018-06-22T23:28:34.418Z,9.60
2018-06-22T23:31:04.057Z,9.60
2018-06-22T23:33:33.061Z,9.50
2018-06-22T23:36:02.622Z,9.50
2018-06-22T23:38:31.842Z,9.50
2018-06-22T23:41:00.398Z,9.40
2018-06-22T23:43:29.205Z,9.50
2018-06-22T23:45:57.743Z,9.50
2018-06-22T23:48:26.241Z,9.50
2018-06-22T23:50:55.524Z,9.40
2018-06-22T23:53:24.021Z,9.30
2018-06-22T23:55:52.526Z,9.30
2018-06-22T23:58:21.110Z,9.30
